Terminal Aerodrome Forecast
Issued by NWS Wilmington, NC

Home | Current Version | Previous Version | Text Only | Print | Product List | Glossary On
Versions: 1 2 3 4 5 6 7 8 9 10 11 12 13 14 15 16 17 18 19 20 21 22 23 24 25 26 27
936
FTUS42 KILM 250751 AAA
TAFFLO
TAF AMD
KFLO 250751Z 2508/2606 VRB03KT 4SM BR OVC006
      TEMPO 2509/2512 3/4SM BR OVC004
     FM251300 09004KT P6SM OVC019
     FM251500 14006KT P6SM VCSH SCT035
     FM252000 16008KT P6SM VCTS FEW015CB BKN250
     FM260000 17004KT P6SM OVC250=

USA.gov is the U.S. government's official web portal to all federal, state and local government web resources and services.